sensor_id;sensor_type;location;lat;lon;timestamp;pressure;altitude;pressure_sealevel;temperature;humidity
7834;BME280;3962;42.696;23.354;2023-03-23T00:01:10;95158.97;;;7.13;100.00
7834;BME280;3962;42.696;23.354;2023-03-23T00:03:40;95165.56;;;7.18;100.00
7834;BME280;3962;42.696;23.354;2023-03-23T00:06:08;95170.50;;;7.11;100.00
7834;BME280;3962;42.696;23.354;2023-03-23T00:08:37;95163.09;;;7.06;100.00
7834;BME280;3962;42.696;23.354;2023-03-23T00:11:11;95158.44;;;6.98;100.00
7834;BME280;3962;42.696;23.354;2023-03-23T00:13:41;95151.75;;;6.94;100.00
7834;BME280;3962;42.696;23.354;2023-03-23T00:16:08;95166.06;;;6.92;100.00
7834;BME280;3962;42.696;23.354;2023-03-23T00:18:44;95157.72;;;6.76;100.00
7834;BME280;3962;42.696;23.354;2023-03-23T00:21:11;95157.75;;;6.65;100.00
7834;BME280;3962;42.696;23.354;2023-03-23T00:23:38;95165.00;;;6.63;100.00
7834;BME280;3962;42.696;23.354;2023-03-23T00:26:05;95166.56;;;6.65;100.00
7834;BME280;3962;42.696;23.354;2023-03-23T00:28:33;95175.53;;;6.74;100.00
7834;BME280;3962;42.696;23.354;2023-03-23T00:31:01;95175.56;;;6.63;100.00
7834;BME280;3962;42.696;23.354;2023-03-23T00:33:30;95170.00;;;6.45;100.00
7834;BME280;3962;42.696;23.354;2023-03-23T00:36:00;95172.19;;;6.40;100.00
7834;BME280;3962;42.696;23.354;2023-03-23T00:38:28;95177.94;;;6.34;100.00
7834;BME280;3962;42.696;23.354;2023-03-23T00:40:55;95175.72;;;6.19;100.00
7834;BME280;3962;42.696;23.354;2023-03-23T00:43:23;95178.00;;;6.12;100.00
7834;BME280;3962;42.696;23.354;2023-03-23T00:45:50;95180.31;;;6.06;100.00
7834;BME280;3962;42.696;23.354;2023-03-23T00:48:19;95184.88;;;6.04;100.00
7834;BME280;3962;42.696;23.354;2023-03-23T00:50:46;95182.25;;;6.04;100.00
7834;BME280;3962;42.696;23.354;2023-03-23T00:53:14;95184.03;;;6.14;100.00
7834;BME280;3962;42.696;23.354;2023-03-23T00:55:42;95186.28;;;6.19;100.00
7834;BME280;3962;42.696;23.354;2023-03-23T00:58:09;95190.72;;;6.18;100.00
7834;BME280;3962;42.696;23.354;2023-03-23T01:00:37;95194.44;;;6.16;100.00
7834;BME280;3962;42.696;23.354;2023-03-23T01:03:04;95184.63;;;6.07;100.00
7834;BME280;3962;42.696;23.354;2023-03-23T01:05:34;95188.97;;;5.97;100.00
7834;BME280;3962;42.696;23.354;2023-03-23T01:08:02;95187.88;;;5.88;100.00
7834;BME280;3962;42.696;23.354;2023-03-23T01:10:30;95180.94;;;5.87;100.00
7834;BME280;3962;42.696;23.354;2023-03-23T01:12:58;95191.16;;;5.81;100.00
7834;BME280;3962;42.696;23.354;2023-03-23T01:15:25;95179.84;;;5.79;100.00
7834;BME280;3962;42.696;23.354;2023-03-23T01:17:52;95181.56;;;5.80;100.00
7834;BME280;3962;42.696;23.354;2023-03-23T01:20:19;95172.78;;;5.90;100.00
7834;BME280;3962;42.696;23.354;2023-03-23T01:22:46;95172.03;;;5.88;100.00
7834;BME280;3962;42.696;23.354;2023-03-23T01:25:13;95171.44;;;5.96;100.00
7834;BME280;3962;42.696;23.354;2023-03-23T01:27:41;95160.28;;;5.92;100.00
7834;BME280;3962;42.696;23.354;2023-03-23T01:30:11;95161.13;;;5.82;100.00
7834;BME280;3962;42.696;23.354;2023-03-23T01:32:38;95158.25;;;5.74;100.00
7834;BME280;3962;42.696;23.354;2023-03-23T01:35:06;95164.00;;;5.68;100.00
7834;BME280;3962;42.696;23.354;2023-03-23T01:37:32;95150.44;;;5.72;100.00
7834;BME280;3962;42.696;23.354;2023-03-23T01:40:01;95164.34;;;5.74;100.00
7834;BME280;3962;42.696;23.354;2023-03-23T01:42:31;95165.31;;;5.62;100.00
7834;BME280;3962;42.696;23.354;2023-03-23T01:45:28;95157.41;;;5.62;100.00
7834;BME280;3962;42.696;23.354;2023-03-23T01:48:05;95151.88;;;5.65;100.00
7834;BME280;3962;42.696;23.354;2023-03-23T01:50:37;95152.00;;;5.64;100.00
7834;BME280;3962;42.696;23.354;2023-03-23T01:53:07;95157.63;;;5.70;100.00
7834;BME280;3962;42.696;23.354;2023-03-23T01:55:37;95150.59;;;5.82;100.00
7834;BME280;3962;42.696;23.354;2023-03-23T01:58:06;95144.44;;;5.81;100.00
7834;BME280;3962;42.696;23.354;2023-03-23T02:00:36;95157.03;;;6.00;100.00
7834;BME280;3962;42.696;23.354;2023-03-23T02:03:06;95148.72;;;6.15;100.00
7834;BME280;3962;42.696;23.354;2023-03-23T02:05:38;95151.22;;;6.17;100.00
7834;BME280;3962;42.696;23.354;2023-03-23T02:08:06;95162.22;;;6.33;100.00
7834;BME280;3962;42.696;23.354;2023-03-23T02:10:35;95155.72;;;6.37;100.00
7834;BME280;3962;42.696;23.354;2023-03-23T02:13:03;95160.16;;;6.36;100.00
7834;BME280;3962;42.696;23.354;2023-03-23T02:15:42;95162.56;;;6.39;100.00
7834;BME280;3962;42.696;23.354;2023-03-23T02:18:23;95161.84;;;6.37;100.00
7834;BME280;3962;42.696;23.354;2023-03-23T02:21:26;95159.88;;;6.19;100.00
7834;BME280;3962;42.696;23.354;2023-03-23T02:24:30;95152.06;;;6.17;100.00
7834;BME280;3962;42.696;23.354;2023-03-23T02:27:01;95163.72;;;6.15;100.00
7834;BME280;3962;42.696;23.354;2023-03-23T02:29:56;95151.97;;;6.08;100.00
7834;BME280;3962;42.696;23.354;2023-03-23T02:32:52;95154.03;;;5.93;100.00
7834;BME280;3962;42.696;23.354;2023-03-23T02:35:25;95159.69;;;5.89;100.00
7834;BME280;3962;42.696;23.354;2023-03-23T02:37:58;95162.69;;;5.84;100.00
7834;BME280;3962;42.696;23.354;2023-03-23T02:40:30;95169.78;;;5.84;100.00
7834;BME280;3962;42.696;23.354;2023-03-23T02:43:01;95173.00;;;5.76;100.00
7834;BME280;3962;42.696;23.354;2023-03-23T02:45:29;95172.78;;;5.79;100.00
7834;BME280;3962;42.696;23.354;2023-03-23T02:48:00;95162.81;;;5.72;100.00
7834;BME280;3962;42.696;23.354;2023-03-23T02:50:32;95176.59;;;5.75;100.00
7834;BME280;3962;42.696;23.354;2023-03-23T02:53:01;95184.50;;;5.64;100.00
7834;BME280;3962;42.696;23.354;2023-03-23T02:55:31;95177.69;;;5.51;100.00
7834;BME280;3962;42.696;23.354;2023-03-23T02:57:58;95185.34;;;5.43;100.00
7834;BME280;3962;42.696;23.354;2023-03-23T03:00:27;95188.59;;;5.35;100.00
7834;BME280;3962;42.696;23.354;2023-03-23T03:02:55;95191.09;;;5.37;100.00
7834;BME280;3962;42.696;23.354;2023-03-23T03:05:32;95195.53;;;5.36;100.00
7834;BME280;3962;42.696;23.354;2023-03-23T03:08:15;95195.31;;;5.28;100.00
7834;BME280;3962;42.696;23.354;2023-03-23T03:10:50;95201.91;;;5.34;100.00
7834;BME280;3962;42.696;23.354;2023-03-23T03:13:28;95204.19;;;5.38;100.00
7834;BME280;3962;42.696;23.354;2023-03-23T03:16:00;95203.09;;;5.41;100.00
7834;BME280;3962;42.696;23.354;2023-03-23T03:18:33;95204.78;;;5.42;100.00
7834;BME280;3962;42.696;23.354;2023-03-23T03:21:09;95210.78;;;5.44;100.00
7834;BME280;3962;42.696;23.354;2023-03-23T03:23:40;95214.38;;;5.43;100.00
7834;BME280;3962;42.696;23.354;2023-03-23T03:26:10;95203.81;;;5.43;100.00
7834;BME280;3962;42.696;23.354;2023-03-23T03:28:43;95206.56;;;5.41;100.00
7834;BME280;3962;42.696;23.354;2023-03-23T03:31:15;95215.94;;;5.45;100.00
7834;BME280;3962;42.696;23.354;2023-03-23T03:33:43;95205.75;;;5.41;100.00
7834;BME280;3962;42.696;23.354;2023-03-23T03:36:16;95219.28;;;5.47;100.00
7834;BME280;3962;42.696;23.354;2023-03-23T03:38:46;95224.31;;;5.50;100.00
7834;BME280;3962;42.696;23.354;2023-03-23T03:41:14;95220.97;;;5.48;100.00
7834;BME280;3962;42.696;23.354;2023-03-23T03:43:41;95217.63;;;5.46;100.00
7834;BME280;3962;42.696;23.354;2023-03-23T03:46:08;95216.75;;;5.46;100.00
7834;BME280;3962;42.696;23.354;2023-03-23T03:48:35;95208.13;;;5.44;100.00
7834;BME280;3962;42.696;23.354;2023-03-23T03:51:03;95212.34;;;5.46;100.00
7834;BME280;3962;42.696;23.354;2023-03-23T03:53:31;95212.22;;;5.48;100.00
7834;BME280;3962;42.696;23.354;2023-03-23T03:55:58;95203.09;;;5.52;100.00
7834;BME280;3962;42.696;23.354;2023-03-23T03:58:26;95212.59;;;5.54;100.00
7834;BME280;3962;42.696;23.354;2023-03-23T04:00:58;95210.06;;;5.53;100.00
7834;BME280;3962;42.696;23.354;2023-03-23T04:03:25;95207.81;;;5.59;100.00
7834;BME280;3962;42.696;23.354;2023-03-23T04:05:52;95203.84;;;5.65;100.00
7834;BME280;3962;42.696;23.354;2023-03-23T04:08:20;95198.66;;;5.63;100.00
7834;BME280;3962;42.696;23.354;2023-03-23T04:10:49;95209.81;;;5.67;100.00
7834;BME280;3962;42.696;23.354;2023-03-23T04:13:16;95207.06;;;5.68;100.00
7834;BME280;3962;42.696;23.354;2023-03-23T04:15:43;95203.47;;;5.69;100.00
7834;BME280;3962;42.696;23.354;2023-03-23T04:18:11;95194.84;;;5.67;100.00
7834;BME280;3962;42.696;23.354;2023-03-23T04:20:40;95210.69;;;5.67;100.00
7834;BME280;3962;42.696;23.354;2023-03-23T04:23:08;95211.88;;;5.63;100.00
7834;BME280;3962;42.696;23.354;2023-03-23T04:25:35;95203.94;;;5.63;100.00
7834;BME280;3962;42.696;23.354;2023-03-23T04:28:03;95203.69;;;5.66;100.00
7834;BME280;3962;42.696;23.354;2023-03-23T04:30:30;95211.13;;;5.72;100.00
7834;BME280;3962;42.696;23.354;2023-03-23T04:32:57;95206.72;;;5.73;100.00
7834;BME280;3962;42.696;23.354;2023-03-23T04:35:26;95211.31;;;5.82;100.00
7834;BME280;3962;42.696;23.354;2023-03-23T04:37:55;95215.72;;;5.81;100.00
7834;BME280;3962;42.696;23.354;2023-03-23T04:40:23;95213.56;;;5.75;100.00
7834;BME280;3962;42.696;23.354;2023-03-23T04:42:50;95220.91;;;5.83;100.00
7834;BME280;3962;42.696;23.354;2023-03-23T04:45:20;95216.22;;;5.86;100.00
7834;BME280;3962;42.696;23.354;2023-03-23T04:47:48;95215.75;;;5.92;100.00
7834;BME280;3962;42.696;23.354;2023-03-23T04:50:19;95224.97;;;5.98;100.00
7834;BME280;3962;42.696;23.354;2023-03-23T04:52:46;95217.53;;;6.03;100.00
7834;BME280;3962;42.696;23.354;2023-03-23T04:55:14;95215.72;;;6.03;100.00
7834;BME280;3962;42.696;23.354;2023-03-23T04:57:41;95219.91;;;6.06;100.00
7834;BME280;3962;42.696;23.354;2023-03-23T05:00:09;95226.66;;;6.10;100.00
7834;BME280;3962;42.696;23.354;2023-03-23T05:02:41;95233.25;;;6.15;100.00
7834;BME280;3962;42.696;23.354;2023-03-23T05:05:09;95232.38;;;6.15;100.00
7834;BME280;3962;42.696;23.354;2023-03-23T05:07:36;95229.88;;;6.24;100.00
7834;BME280;3962;42.696;23.354;2023-03-23T05:10:04;95234.53;;;6.32;100.00
7834;BME280;3962;42.696;23.354;2023-03-23T05:12:32;95230.00;;;6.12;100.00
7834;BME280;3962;42.696;23.354;2023-03-23T05:14:58;95235.03;;;6.26;100.00
7834;BME280;3962;42.696;23.354;2023-03-23T05:17:25;95229.72;;;6.37;100.00
7834;BME280;3962;42.696;23.354;2023-03-23T05:19:54;95245.47;;;6.38;100.00
7834;BME280;3962;42.696;23.354;2023-03-23T05:22:22;95241.97;;;6.38;100.00
7834;BME280;3962;42.696;23.354;2023-03-23T05:24:49;95243.53;;;6.40;100.00
7834;BME280;3962;42.696;23.354;2023-03-23T05:27:17;95250.59;;;6.40;100.00
7834;BME280;3962;42.696;23.354;2023-03-23T05:29:44;95248.47;;;6.34;100.00
7834;BME280;3962;42.696;23.354;2023-03-23T05:32:14;95252.56;;;6.27;100.00
7834;BME280;3962;42.696;23.354;2023-03-23T05:34:41;95258.44;;;6.30;100.00
7834;BME280;3962;42.696;23.354;2023-03-23T05:37:10;95245.56;;;6.37;100.00
7834;BME280;3962;42.696;23.354;2023-03-23T05:39:37;95255.50;;;6.44;100.00
7834;BME280;3962;42.696;23.354;2023-03-23T05:42:05;95257.56;;;6.41;99.79
7834;BME280;3962;42.696;23.354;2023-03-23T05:44:33;95260.47;;;6.16;100.00
7834;BME280;3962;42.696;23.354;2023-03-23T05:47:00;95263.84;;;6.29;100.00
7834;BME280;3962;42.696;23.354;2023-03-23T05:49:27;95258.31;;;6.32;99.58
7834;BME280;3962;42.696;23.354;2023-03-23T05:51:54;95265.97;;;6.46;99.18
7834;BME280;3962;42.696;23.354;2023-03-23T05:54:22;95265.94;;;6.57;98.84
7834;BME280;3962;42.696;23.354;2023-03-23T05:56:49;95262.47;;;6.56;98.98
7834;BME280;3962;42.696;23.354;2023-03-23T05:59:16;95269.69;;;6.54;99.21
7834;BME280;3962;42.696;23.354;2023-03-23T06:01:43;95282.91;;;6.43;98.48
7834;BME280;3962;42.696;23.354;2023-03-23T06:04:10;95270.63;;;6.64;99.12
7834;BME280;3962;42.696;23.354;2023-03-23T06:06:37;95277.75;;;6.84;98.37
7834;BME280;3962;42.696;23.354;2023-03-23T06:09:04;95289.41;;;6.39;97.89
7834;BME280;3962;42.696;23.354;2023-03-23T06:11:33;95277.41;;;6.46;98.69
7834;BME280;3962;42.696;23.354;2023-03-23T06:14:00;95279.75;;;6.60;98.51
7834;BME280;3962;42.696;23.354;2023-03-23T06:16:28;95277.63;;;6.54;98.20
7834;BME280;3962;42.696;23.354;2023-03-23T06:18:55;95277.38;;;6.57;97.68
7834;BME280;3962;42.696;23.354;2023-03-23T06:21:22;95278.22;;;6.58;97.77
7834;BME280;3962;42.696;23.354;2023-03-23T06:23:49;95282.66;;;6.57;97.84
7834;BME280;3962;42.696;23.354;2023-03-23T06:26:18;95284.06;;;6.72;97.95
7834;BME280;3962;42.696;23.354;2023-03-23T06:28:47;95288.47;;;6.83;97.39
7834;BME280;3962;42.696;23.354;2023-03-23T06:31:14;95292.38;;;6.99;96.66
7834;BME280;3962;42.696;23.354;2023-03-23T06:33:43;95287.19;;;7.29;96.79
7834;BME280;3962;42.696;23.354;2023-03-23T06:36:10;95278.38;;;7.39;95.33
7834;BME280;3962;42.696;23.354;2023-03-23T06:38:37;95282.06;;;7.48;95.01
7834;BME280;3962;42.696;23.354;2023-03-23T06:41:05;95281.00;;;7.19;94.75
7834;BME280;3962;42.696;23.354;2023-03-23T06:43:31;95283.75;;;7.17;95.57
7834;BME280;3962;42.696;23.354;2023-03-23T06:46:00;95282.09;;;7.37;95.41
7834;BME280;3962;42.696;23.354;2023-03-23T06:48:27;95290.13;;;7.46;95.10
7834;BME280;3962;42.696;23.354;2023-03-23T06:50:54;95295.16;;;7.49;94.50
7834;BME280;3962;42.696;23.354;2023-03-23T06:53:21;95293.56;;;7.58;93.94
7834;BME280;3962;42.696;23.354;2023-03-23T06:55:48;95290.81;;;7.69;93.98
7834;BME280;3962;42.696;23.354;2023-03-23T06:58:15;95294.75;;;7.74;93.13
7834;BME280;3962;42.696;23.354;2023-03-23T07:00:43;95297.28;;;7.76;93.91
7834;BME280;3962;42.696;23.354;2023-03-23T07:03:13;95298.91;;;7.88;93.25
7834;BME280;3962;42.696;23.354;2023-03-23T07:05:40;95291.97;;;7.96;92.82
7834;BME280;3962;42.696;23.354;2023-03-23T07:08:11;95296.84;;;7.91;92.72
7834;BME280;3962;42.696;23.354;2023-03-23T07:10:38;95305.78;;;8.00;93.30
7834;BME280;3962;42.696;23.354;2023-03-23T07:13:06;95304.03;;;8.10;92.18
7834;BME280;3962;42.696;23.354;2023-03-23T07:15:34;95299.66;;;8.20;92.45
7834;BME280;3962;42.696;23.354;2023-03-23T07:18:02;95299.59;;;8.40;91.92
7834;BME280;3962;42.696;23.354;2023-03-23T07:20:30;95305.59;;;8.42;91.51
7834;BME280;3962;42.696;23.354;2023-03-23T07:22:57;95311.38;;;8.57;91.50
7834;BME280;3962;42.696;23.354;2023-03-23T07:25:24;95294.84;;;8.83;90.89
7834;BME280;3962;42.696;23.354;2023-03-23T07:27:52;95300.47;;;8.90;88.74
7834;BME280;3962;42.696;23.354;2023-03-23T07:30:19;95303.53;;;8.95;88.65
7834;BME280;3962;42.696;23.354;2023-03-23T07:32:46;95302.53;;;8.96;87.76
7834;BME280;3962;42.696;23.354;2023-03-23T07:35:13;95298.09;;;9.06;87.88
7834;BME280;3962;42.696;23.354;2023-03-23T07:37:45;95305.06;;;9.16;86.99
7834;BME280;3962;42.696;23.354;2023-03-23T07:40:14;95301.75;;;9.24;86.57
7834;BME280;3962;42.696;23.354;2023-03-23T07:42:45;95300.50;;;9.37;86.31
7834;BME280;3962;42.696;23.354;2023-03-23T07:45:15;95302.00;;;9.59;85.61
7834;BME280;3962;42.696;23.354;2023-03-23T07:47:42;95310.25;;;9.75;85.03
7834;BME280;3962;42.696;23.354;2023-03-23T07:50:09;95308.28;;;9.86;83.96
7834;BME280;3962;42.696;23.354;2023-03-23T07:52:37;95307.00;;;10.00;83.18
7834;BME280;3962;42.696;23.354;2023-03-23T07:55:08;95313.44;;;10.07;82.71
7834;BME280;3962;42.696;23.354;2023-03-23T07:57:37;95308.00;;;10.08;82.70
7834;BME280;3962;42.696;23.354;2023-03-23T08:00:05;95311.75;;;10.15;82.94
7834;BME280;3962;42.696;23.354;2023-03-23T08:02:37;95316.09;;;10.53;83.13
7834;BME280;3962;42.696;23.354;2023-03-23T08:05:05;95312.53;;;11.77;79.76
7834;BME280;3962;42.696;23.354;2023-03-23T08:07:32;95319.44;;;12.56;75.31
7834;BME280;3962;42.696;23.354;2023-03-23T08:09:59;95322.13;;;13.23;72.88
7834;BME280;3962;42.696;23.354;2023-03-23T08:12:27;95324.28;;;14.25;68.69
7834;BME280;3962;42.696;23.354;2023-03-23T08:14:54;95319.00;;;15.34;64.13
7834;BME280;3962;42.696;23.354;2023-03-23T08:17:21;95323.44;;;15.72;63.18
7834;BME280;3962;42.696;23.354;2023-03-23T08:19:48;95322.41;;;16.48;61.08
7834;BME280;3962;42.696;23.354;2023-03-23T08:22:18;95322.97;;;16.73;58.72
7834;BME280;3962;42.696;23.354;2023-03-23T08:24:46;95321.00;;;16.67;58.34
7834;BME280;3962;42.696;23.354;2023-03-23T08:27:14;95328.28;;;16.81;57.50
7834;BME280;3962;42.696;23.354;2023-03-23T08:29:43;95322.59;;;16.61;58.27
7834;BME280;3962;42.696;23.354;2023-03-23T08:32:11;95324.75;;;16.80;57.52
7834;BME280;3962;42.696;23.354;2023-03-23T08:34:39;95318.63;;;16.86;56.60
7834;BME280;3962;42.696;23.354;2023-03-23T08:37:08;95308.16;;;16.91;55.48
7834;BME280;3962;42.696;23.354;2023-03-23T08:39:35;95312.59;;;16.99;55.20
7834;BME280;3962;42.696;23.354;2023-03-23T08:42:03;95317.41;;;17.32;55.46
7834;BME280;3962;42.696;23.354;2023-03-23T08:44:30;95309.63;;;17.66;55.37
7834;BME280;3962;42.696;23.354;2023-03-23T08:46:58;95310.31;;;17.75;54.55
7834;BME280;3962;42.696;23.354;2023-03-23T08:49:26;95315.09;;;17.94;54.17
7834;BME280;3962;42.696;23.354;2023-03-23T08:51:53;95309.69;;;17.73;51.50
7834;BME280;3962;42.696;23.354;2023-03-23T08:54:20;95307.03;;;17.58;49.69
7834;BME280;3962;42.696;23.354;2023-03-23T08:56:47;95313.28;;;17.44;51.98
7834;BME280;3962;42.696;23.354;2023-03-23T08:59:15;95312.59;;;17.42;50.35
7834;BME280;3962;42.696;23.354;2023-03-23T09:01:42;95314.19;;;17.22;49.94
7834;BME280;3962;42.696;23.354;2023-03-23T09:04:10;95311.69;;;17.21;48.56
7834;BME280;3962;42.696;23.354;2023-03-23T09:06:39;95316.59;;;17.17;47.83
7834;BME280;3962;42.696;23.354;2023-03-23T09:09:06;95318.00;;;17.13;47.03
7834;BME280;3962;42.696;23.354;2023-03-23T09:11:36;95308.59;;;17.53;48.97
7834;BME280;3962;42.696;23.354;2023-03-23T09:14:07;95317.34;;;17.90;49.71
7834;BME280;3962;42.696;23.354;2023-03-23T09:16:34;95314.88;;;18.31;47.45
7834;BME280;3962;42.696;23.354;2023-03-23T09:19:01;95307.34;;;17.84;46.00
7834;BME280;3962;42.696;23.354;2023-03-23T09:21:29;95304.88;;;17.54;47.14
7834;BME280;3962;42.696;23.354;2023-03-23T09:23:57;95302.41;;;17.38;47.48
7834;BME280;3962;42.696;23.354;2023-03-23T09:26:24;95309.53;;;16.87;46.64
7834;BME280;3962;42.696;23.354;2023-03-23T09:28:53;95314.84;;;16.44;47.67
7834;BME280;3962;42.696;23.354;2023-03-23T09:31:22;95303.00;;;15.71;49.04
7834;BME280;3962;42.696;23.354;2023-03-23T09:33:52;95301.06;;;15.26;51.53
7834;BME280;3962;42.696;23.354;2023-03-23T09:36:21;95303.47;;;15.52;51.71
7834;BME280;3962;42.696;23.354;2023-03-23T09:38:50;95286.28;;;14.92;52.44
7834;BME280;3962;42.696;23.354;2023-03-23T09:41:34;95295.53;;;15.28;52.82
7834;BME280;3962;42.696;23.354;2023-03-23T09:44:07;95292.09;;;15.72;49.03
7834;BME280;3962;42.696;23.354;2023-03-23T09:46:48;95292.28;;;15.93;49.61
7834;BME280;3962;42.696;23.354;2023-03-23T09:49:20;95282.91;;;16.12;49.62
7834;BME280;3962;42.696;23.354;2023-03-23T09:51:54;95288.59;;;16.54;50.98
7834;BME280;3962;42.696;23.354;2023-03-23T09:54:26;95292.31;;;16.67;48.99
7834;BME280;3962;42.696;23.354;2023-03-23T09:56:55;95285.47;;;16.94;48.75
7834;BME280;3962;42.696;23.354;2023-03-23T09:59:27;95284.41;;;16.37;47.47
7834;BME280;3962;42.696;23.354;2023-03-23T10:01:59;95287.75;;;16.53;47.46
7834;BME280;3962;42.696;23.354;2023-03-23T10:04:36;95287.63;;;16.84;50.19
7834;BME280;3962;42.696;23.354;2023-03-23T10:07:10;95273.59;;;17.03;46.65
7834;BME280;3962;42.696;23.354;2023-03-23T10:09:40;95279.50;;;16.18;48.00
7834;BME280;3962;42.696;23.354;2023-03-23T10:12:14;95278.81;;;16.01;51.00
7834;BME280;3962;42.696;23.354;2023-03-23T10:14:56;95285.31;;;16.07;49.82
7834;BME280;3962;42.696;23.354;2023-03-23T10:17:28;95284.25;;;16.82;52.09
7834;BME280;3962;42.696;23.354;2023-03-23T10:20:05;95279.34;;;16.71;50.02
7834;BME280;3962;42.696;23.354;2023-03-23T10:22:40;95270.00;;;16.81;50.81
7834;BME280;3962;42.696;23.354;2023-03-23T10:25:16;95276.38;;;16.51;48.41
7834;BME280;3962;42.696;23.354;2023-03-23T10:27:49;95270.75;;;15.56;50.73
7834;BME280;3962;42.696;23.354;2023-03-23T10:30:23;95273.72;;;15.61;51.35
7834;BME280;3962;42.696;23.354;2023-03-23T10:32:53;95264.91;;;15.75;50.65
7834;BME280;3962;42.696;23.354;2023-03-23T10:35:25;95264.63;;;16.30;50.14
7834;BME280;3962;42.696;23.354;2023-03-23T10:37:59;95263.97;;;16.65;49.39
7834;BME280;3962;42.696;23.354;2023-03-23T10:40:30;95266.53;;;16.87;48.46
7834;BME280;3962;42.696;23.354;2023-03-23T10:43:00;95263.59;;;16.82;48.19
7834;BME280;3962;42.696;23.354;2023-03-23T10:45:29;95266.72;;;16.71;48.26
7834;BME280;3962;42.696;23.354;2023-03-23T10:48:00;95256.84;;;16.57;49.04
7834;BME280;3962;42.696;23.354;2023-03-23T10:50:35;95254.63;;;16.24;49.07
7834;BME280;3962;42.696;23.354;2023-03-23T10:53:10;95247.69;;;15.70;50.66
7834;BME280;3962;42.696;23.354;2023-03-23T10:55:41;95261.84;;;15.56;50.26
7834;BME280;3962;42.696;23.354;2023-03-23T10:58:11;95259.22;;;15.78;50.19
7834;BME280;3962;42.696;23.354;2023-03-23T11:00:44;95263.63;;;16.08;49.22
7834;BME280;3962;42.696;23.354;2023-03-23T11:03:39;95263.56;;;16.39;48.67
7834;BME280;3962;42.696;23.354;2023-03-23T11:06:08;95251.47;;;16.57;49.48
7834;BME280;3962;42.696;23.354;2023-03-23T11:08:38;95253.75;;;17.04;49.13
7834;BME280;3962;42.696;23.354;2023-03-23T11:11:17;95248.06;;;17.28;47.48
7834;BME280;3962;42.696;23.354;2023-03-23T11:13:46;95237.38;;;16.70;48.00
7834;BME280;3962;42.696;23.354;2023-03-23T11:16:23;95232.28;;;16.23;49.42
7834;BME280;3962;42.696;23.354;2023-03-23T11:18:50;95238.19;;;16.04;49.69
7834;BME280;3962;42.696;23.354;2023-03-23T11:21:19;95231.41;;;16.08;49.84
7834;BME280;3962;42.696;23.354;2023-03-23T11:23:49;95235.91;;;16.30;49.67
7834;BME280;3962;42.696;23.354;2023-03-23T11:26:21;95232.75;;;16.27;49.30
7834;BME280;3962;42.696;23.354;2023-03-23T11:28:52;95226.69;;;16.47;49.54
7834;BME280;3962;42.696;23.354;2023-03-23T11:31:22;95220.78;;;16.52;48.55
7834;BME280;3962;42.696;23.354;2023-03-23T11:33:53;95220.19;;;16.27;48.68
7834;BME280;3962;42.696;23.354;2023-03-23T11:36:29;95220.91;;;16.21;49.24
7834;BME280;3962;42.696;23.354;2023-03-23T11:38:56;95213.63;;;16.30;49.56
7834;BME280;3962;42.696;23.354;2023-03-23T11:41:31;95207.50;;;15.84;49.94
7834;BME280;3962;42.696;23.354;2023-03-23T11:44:07;95204.56;;;15.94;50.55
7834;BME280;3962;42.696;23.354;2023-03-23T11:46:43;95205.66;;;16.22;49.61
7834;BME280;3962;42.696;23.354;2023-03-23T11:49:20;95201.88;;;17.03;48.24
7834;BME280;3962;42.696;23.354;2023-03-23T11:51:55;95200.13;;;17.31;47.71
7834;BME280;3962;42.696;23.354;2023-03-23T11:54:29;95195.81;;;17.72;46.96
7834;BME280;3962;42.696;23.354;2023-03-23T11:56:58;95206.97;;;17.69;45.46
7834;BME280;3962;42.696;23.354;2023-03-23T11:59:31;95192.59;;;17.41;46.02
7834;BME280;3962;42.696;23.354;2023-03-23T12:02:09;95191.31;;;17.23;46.48
7834;BME280;3962;42.696;23.354;2023-03-23T12:04:57;95191.19;;;17.10;47.55
7834;BME280;3962;42.696;23.354;2023-03-23T12:07:41;95195.13;;;16.78;47.51
7834;BME280;3962;42.696;23.354;2023-03-23T12:10:27;95196.88;;;16.71;47.74
7834;BME280;3962;42.696;23.354;2023-03-23T12:13:06;95181.56;;;17.01;48.07
7834;BME280;3962;42.696;23.354;2023-03-23T12:15:43;95178.72;;;17.23;46.89
7834;BME280;3962;42.696;23.354;2023-03-23T12:18:18;95183.50;;;17.42;46.50
7834;BME280;3962;42.696;23.354;2023-03-23T12:20:56;95188.91;;;17.28;46.55
7834;BME280;3962;42.696;23.354;2023-03-23T12:23:29;95181.81;;;17.56;46.12
7834;BME280;3962;42.696;23.354;2023-03-23T12:26:14;95186.13;;;17.78;45.98
7834;BME280;3962;42.696;23.354;2023-03-23T12:29:08;95175.91;;;17.31;47.10
7834;BME280;3962;42.696;23.354;2023-03-23T12:31:47;95185.63;;;17.89;45.95
7834;BME280;3962;42.696;23.354;2023-03-23T12:34:29;95177.56;;;17.89;44.99
7834;BME280;3962;42.696;23.354;2023-03-23T12:37:12;95183.06;;;18.02;44.80
7834;BME280;3962;42.696;23.354;2023-03-23T12:40:09;95180.06;;;17.90;44.86
7834;BME280;3962;42.696;23.354;2023-03-23T12:42:48;95171.56;;;18.14;44.26
7834;BME280;3962;42.696;23.354;2023-03-23T12:45:37;95163.94;;;18.18;44.36
7834;BME280;3962;42.696;23.354;2023-03-23T12:48:11;95162.03;;;17.91;45.58
7834;BME280;3962;42.696;23.354;2023-03-23T12:50:42;95165.13;;;17.88;45.07
7834;BME280;3962;42.696;23.354;2023-03-23T12:53:16;95157.53;;;18.53;43.89
7834;BME280;3962;42.696;23.354;2023-03-23T12:55:47;95160.31;;;18.66;43.48
7834;BME280;3962;42.696;23.354;2023-03-23T12:58:19;95166.72;;;18.98;43.16
7834;BME280;3962;42.696;23.354;2023-03-23T13:00:56;95153.22;;;18.98;43.12
7834;BME280;3962;42.696;23.354;2023-03-23T13:03:28;95149.16;;;18.75;43.32
7834;BME280;3962;42.696;23.354;2023-03-23T13:06:02;95149.47;;;18.25;44.07
7834;BME280;3962;42.696;23.354;2023-03-23T13:08:34;95148.50;;;18.33;44.71
7834;BME280;3962;42.696;23.354;2023-03-23T13:11:04;95145.38;;;18.29;44.32
7834;BME280;3962;42.696;23.354;2023-03-23T13:13:45;95146.28;;;18.15;44.85
7834;BME280;3962;42.696;23.354;2023-03-23T13:16:25;95135.59;;;18.01;44.57
7834;BME280;3962;42.696;23.354;2023-03-23T13:19:04;95145.41;;;17.60;45.42
7834;BME280;3962;42.696;23.354;2023-03-23T13:21:37;95137.66;;;17.71;45.47
7834;BME280;3962;42.696;23.354;2023-03-23T13:24:09;95142.66;;;17.74;45.51
7834;BME280;3962;42.696;23.354;2023-03-23T13:26:39;95141.44;;;18.32;44.64
7834;BME280;3962;42.696;23.354;2023-03-23T13:29:12;95140.66;;;18.38;44.23
7834;BME280;3962;42.696;23.354;2023-03-23T13:31:41;95135.50;;;18.77;43.46